Terminal Aerodrome Forecast
Issued by NWS

Home | Current Version | Previous Version | Text Only | Print | Product List | Glossary On
Versions: 1 2 3 4 5 6 7 8 9 10 11 12 13
000
FTUS43 KMQT 270904 AAA
TAFCMX
TAF AMD
KCMX 270904Z 2709/2806 33007KT P6SM SKC
     FM271200 35008KT P6SM SCT025
     FM271600 36012KT P6SM SCT030
     FM280100 VRB03KT P6SM SKC=

USA.gov is the U.S. government's official web portal to all federal, state and local government web resources and services.